sensor_id;sensor_type;location;lat;lon;timestamp;P1;durP1;ratioP1;P2;durP2;ratioP2
54430;SDS011;40342;52.998;5.862;2024-03-23T00:54:22;22.55;;;4.50;;
54430;SDS011;40342;52.998;5.862;2024-03-23T00:56:48;23.73;;;4.60;;
54430;SDS011;40342;52.998;5.862;2024-03-23T00:59:13;20.15;;;4.53;;
54430;SDS011;40342;52.998;5.862;2024-03-23T01:01:39;23.45;;;4.85;;
54430;SDS011;40342;52.998;5.862;2024-03-23T01:04:05;21.50;;;4.72;;
54430;SDS011;40342;52.998;5.862;2024-03-23T01:06:31;28.27;;;4.45;;
54430;SDS011;40342;52.998;5.862;2024-03-23T01:08:56;18.58;;;4.47;;
54430;SDS011;40342;52.998;5.862;2024-03-23T01:11:22;18.20;;;4.43;;
54430;SDS011;40342;52.998;5.862;2024-03-23T01:13:47;23.38;;;4.85;;
54430;SDS011;40342;52.998;5.862;2024-03-23T01:16:13;22.30;;;4.82;;
54430;SDS011;40342;52.998;5.862;2024-03-23T01:18:39;21.50;;;4.30;;
54430;SDS011;40342;52.998;5.862;2024-03-23T01:21:04;18.65;;;4.53;;
54430;SDS011;40342;52.998;5.862;2024-03-23T01:23:30;19.55;;;3.78;;
54430;SDS011;40342;52.998;5.862;2024-03-23T01:25:55;21.67;;;5.07;;
54430;SDS011;40342;52.998;5.862;2024-03-23T01:28:21;22.63;;;5.45;;
54430;SDS011;40342;52.998;5.862;2024-03-23T01:30:47;19.95;;;3.97;;
54430;SDS011;40342;52.998;5.862;2024-03-23T01:33:13;20.15;;;3.97;;
54430;SDS011;40342;52.998;5.862;2024-03-23T01:35:39;17.00;;;3.97;;
54430;SDS011;40342;52.998;5.862;2024-03-23T01:38:05;14.35;;;3.75;;
54430;SDS011;40342;52.998;5.862;2024-03-23T01:40:31;19.55;;;4.28;;
54430;SDS011;40342;52.998;5.862;2024-03-23T01:43:04;24.33;;;4.80;;
54430;SDS011;40342;52.998;5.862;2024-03-23T01:45:32;22.15;;;4.70;;
54430;SDS011;40342;52.998;5.862;2024-03-23T01:47:58;28.73;;;5.32;;
54430;SDS011;40342;52.998;5.862;2024-03-23T01:50:25;18.90;;;4.20;;
54430;SDS011;40342;52.998;5.862;2024-03-23T01:52:51;19.00;;;4.75;;
54430;SDS011;40342;52.998;5.862;2024-03-23T01:55:17;14.13;;;3.72;;
54430;SDS011;40342;52.998;5.862;2024-03-23T01:57:42;19.50;;;4.43;;
54430;SDS011;40342;52.998;5.862;2024-03-23T02:00:08;14.20;;;3.83;;
54430;SDS011;40342;52.998;5.862;2024-03-23T02:02:40;18.27;;;4.45;;
54430;SDS011;40342;52.998;5.862;2024-03-23T02:05:10;14.00;;;3.80;;
54430;SDS011;40342;52.998;5.862;2024-03-23T02:07:40;24.63;;;4.60;;
54430;SDS011;40342;52.998;5.862;2024-03-23T02:10:06;15.93;;;3.55;;
54430;SDS011;40342;52.998;5.862;2024-03-23T02:12:32;22.70;;;4.43;;
54430;SDS011;40342;52.998;5.862;2024-03-23T02:14:58;18.92;;;4.05;;
54430;SDS011;40342;52.998;5.862;2024-03-23T02:17:24;10.77;;;3.45;;
54430;SDS011;40342;52.998;5.862;2024-03-23T02:19:50;15.98;;;3.72;;
54430;SDS011;40342;52.998;5.862;2024-03-23T02:22:16;15.48;;;3.22;;
54430;SDS011;40342;52.998;5.862;2024-03-23T02:24:42;9.52;;;3.28;;
54430;SDS011;40342;52.998;5.862;2024-03-23T02:27:07;14.27;;;3.13;;
54430;SDS011;40342;52.998;5.862;2024-03-23T02:29:33;15.25;;;3.13;;
54430;SDS011;40342;52.998;5.862;2024-03-23T02:31:59;9.13;;;2.70;;
54430;SDS011;40342;52.998;5.862;2024-03-23T02:34:25;16.10;;;2.95;;
54430;SDS011;40342;52.998;5.862;2024-03-23T02:36:50;8.65;;;2.60;;
54430;SDS011;40342;52.998;5.862;2024-03-23T02:39:16;14.00;;;3.10;;
54430;SDS011;40342;52.998;5.862;2024-03-23T02:41:41;13.40;;;2.70;;
54430;SDS011;40342;52.998;5.862;2024-03-23T02:44:07;12.30;;;3.20;;
54430;SDS011;40342;52.998;5.862;2024-03-23T02:46:36;11.32;;;2.78;;
54430;SDS011;40342;52.998;5.862;2024-03-23T02:49:02;10.75;;;2.70;;
54430;SDS011;40342;52.998;5.862;2024-03-23T02:51:29;12.77;;;2.72;;
54430;SDS011;40342;52.998;5.862;2024-03-23T02:53:55;10.32;;;1.92;;
54430;SDS011;40342;52.998;5.862;2024-03-23T02:56:21;8.55;;;2.55;;
54430;SDS011;40342;52.998;5.862;2024-03-23T02:58:47;13.18;;;3.58;;
54430;SDS011;40342;52.998;5.862;2024-03-23T03:01:12;12.48;;;2.58;;
54430;SDS011;40342;52.998;5.862;2024-03-23T03:03:38;12.80;;;3.10;;
54430;SDS011;40342;52.998;5.862;2024-03-23T03:06:03;16.67;;;3.40;;
54430;SDS011;40342;52.998;5.862;2024-03-23T03:08:29;18.48;;;3.30;;
54430;SDS011;40342;52.998;5.862;2024-03-23T03:10:55;14.55;;;3.35;;
54430;SDS011;40342;52.998;5.862;2024-03-23T03:13:20;10.85;;;2.90;;
54430;SDS011;40342;52.998;5.862;2024-03-23T03:15:46;10.30;;;3.28;;
54430;SDS011;40342;52.998;5.862;2024-03-23T03:18:11;14.23;;;3.40;;
54430;SDS011;40342;52.998;5.862;2024-03-23T03:20:40;11.00;;;3.03;;
54430;SDS011;40342;52.998;5.862;2024-03-23T03:23:06;12.55;;;2.30;;
54430;SDS011;40342;52.998;5.862;2024-03-23T03:25:32;12.25;;;2.60;;
54430;SDS011;40342;52.998;5.862;2024-03-23T03:27:58;13.48;;;2.72;;
54430;SDS011;40342;52.998;5.862;2024-03-23T03:30:24;14.05;;;3.25;;
54430;SDS011;40342;52.998;5.862;2024-03-23T03:32:51;11.23;;;2.50;;
54430;SDS011;40342;52.998;5.862;2024-03-23T03:35:18;10.90;;;3.08;;
54430;SDS011;40342;52.998;5.862;2024-03-23T03:37:43;12.13;;;2.70;;
54430;SDS011;40342;52.998;5.862;2024-03-23T03:40:09;13.88;;;2.70;;
54430;SDS011;40342;52.998;5.862;2024-03-23T03:42:36;14.70;;;3.05;;
54430;SDS011;40342;52.998;5.862;2024-03-23T03:45:01;11.32;;;2.28;;
54430;SDS011;40342;52.998;5.862;2024-03-23T03:47:29;12.02;;;2.65;;
54430;SDS011;40342;52.998;5.862;2024-03-23T03:49:55;11.95;;;2.67;;
54430;SDS011;40342;52.998;5.862;2024-03-23T03:52:20;17.42;;;3.67;;
54430;SDS011;40342;52.998;5.862;2024-03-23T03:54:46;16.92;;;3.00;;
54430;SDS011;40342;52.998;5.862;2024-03-23T03:57:11;11.63;;;3.67;;
54430;SDS011;40342;52.998;5.862;2024-03-23T03:59:37;14.10;;;3.13;;
54430;SDS011;40342;52.998;5.862;2024-03-23T04:02:03;11.18;;;3.40;;
54430;SDS011;40342;52.998;5.862;2024-03-23T04:04:28;8.93;;;2.45;;
54430;SDS011;40342;52.998;5.862;2024-03-23T04:07:00;15.65;;;2.45;;
54430;SDS011;40342;52.998;5.862;2024-03-23T04:09:27;12.43;;;2.20;;
54430;SDS011;40342;52.998;5.862;2024-03-23T04:11:52;10.73;;;2.47;;
54430;SDS011;40342;52.998;5.862;2024-03-23T04:14:18;14.57;;;2.53;;
54430;SDS011;40342;52.998;5.862;2024-03-23T04:16:44;12.60;;;2.88;;
54430;SDS011;40342;52.998;5.862;2024-03-23T04:19:09;13.02;;;2.22;;
54430;SDS011;40342;52.998;5.862;2024-03-23T04:21:35;11.15;;;1.85;;
54430;SDS011;40342;52.998;5.862;2024-03-23T04:24:02;11.88;;;2.72;;
54430;SDS011;40342;52.998;5.862;2024-03-23T04:26:28;15.95;;;2.75;;
54430;SDS011;40342;52.998;5.862;2024-03-23T04:28:53;7.03;;;2.53;;
54430;SDS011;40342;52.998;5.862;2024-03-23T04:31:19;12.68;;;2.50;;
54430;SDS011;40342;52.998;5.862;2024-03-23T04:33:44;15.90;;;2.55;;
54430;SDS011;40342;52.998;5.862;2024-03-23T04:36:10;15.98;;;2.20;;
54430;SDS011;40342;52.998;5.862;2024-03-23T04:38:36;14.77;;;2.85;;
54430;SDS011;40342;52.998;5.862;2024-03-23T04:41:01;15.55;;;2.30;;
54430;SDS011;40342;52.998;5.862;2024-03-23T04:43:27;13.38;;;3.03;;
54430;SDS011;40342;52.998;5.862;2024-03-23T04:45:53;16.63;;;2.83;;
54430;SDS011;40342;52.998;5.862;2024-03-23T04:48:22;9.52;;;2.45;;
54430;SDS011;40342;52.998;5.862;2024-03-23T04:50:49;12.07;;;2.13;;
54430;SDS011;40342;52.998;5.862;2024-03-23T04:53:15;11.70;;;2.28;;
54430;SDS011;40342;52.998;5.862;2024-03-23T04:55:41;13.50;;;2.33;;
54430;SDS011;40342;52.998;5.862;2024-03-23T04:58:07;12.52;;;3.00;;
54430;SDS011;40342;52.998;5.862;2024-03-23T05:00:33;11.70;;;2.15;;
54430;SDS011;40342;52.998;5.862;2024-03-23T05:02:59;8.90;;;2.17;;
54430;SDS011;40342;52.998;5.862;2024-03-23T05:05:24;11.85;;;2.15;;
54430;SDS011;40342;52.998;5.862;2024-03-23T05:07:50;11.27;;;2.05;;
54430;SDS011;40342;52.998;5.862;2024-03-23T05:10:15;9.73;;;2.40;;
54430;SDS011;40342;52.998;5.862;2024-03-23T05:12:41;12.85;;;2.80;;
54430;SDS011;40342;52.998;5.862;2024-03-23T05:15:07;8.13;;;2.25;;
54430;SDS011;40342;52.998;5.862;2024-03-23T05:17:33;12.90;;;2.15;;
54430;SDS011;40342;52.998;5.862;2024-03-23T05:19:58;8.18;;;2.45;;
54430;SDS011;40342;52.998;5.862;2024-03-23T05:22:24;16.23;;;3.05;;
54430;SDS011;40342;52.998;5.862;2024-03-23T05:24:50;15.05;;;2.72;;
54430;SDS011;40342;52.998;5.862;2024-03-23T05:27:15;12.95;;;3.00;;
54430;SDS011;40342;52.998;5.862;2024-03-23T05:29:41;10.40;;;2.47;;
54430;SDS011;40342;52.998;5.862;2024-03-23T05:32:07;14.70;;;3.03;;
54430;SDS011;40342;52.998;5.862;2024-03-23T05:34:32;13.40;;;2.80;;
54430;SDS011;40342;52.998;5.862;2024-03-23T05:36:58;12.07;;;2.25;;
54430;SDS011;40342;52.998;5.862;2024-03-23T05:39:24;15.20;;;2.45;;
54430;SDS011;40342;52.998;5.862;2024-03-23T05:41:50;17.15;;;2.35;;
54430;SDS011;40342;52.998;5.862;2024-03-23T05:44:16;15.20;;;2.78;;
54430;SDS011;40342;52.998;5.862;2024-03-23T05:46:41;13.07;;;3.03;;
54430;SDS011;40342;52.998;5.862;2024-03-23T05:49:07;12.68;;;2.63;;
54430;SDS011;40342;52.998;5.862;2024-03-23T05:51:34;17.88;;;3.55;;
54430;SDS011;40342;52.998;5.862;2024-03-23T05:53:59;24.13;;;4.10;;
54430;SDS011;40342;52.998;5.862;2024-03-23T05:56:26;15.55;;;3.13;;
54430;SDS011;40342;52.998;5.862;2024-03-23T05:58:52;12.88;;;2.42;;
54430;SDS011;40342;52.998;5.862;2024-03-23T06:01:17;22.40;;;2.97;;
54430;SDS011;40342;52.998;5.862;2024-03-23T06:03:43;11.52;;;2.60;;
54430;SDS011;40342;52.998;5.862;2024-03-23T06:06:09;10.18;;;2.45;;
54430;SDS011;40342;52.998;5.862;2024-03-23T06:08:37;9.35;;;2.53;;
54430;SDS011;40342;52.998;5.862;2024-03-23T06:11:03;10.75;;;2.03;;
54430;SDS011;40342;52.998;5.862;2024-03-23T06:13:32;9.85;;;1.75;;
54430;SDS011;40342;52.998;5.862;2024-03-23T06:15:59;7.10;;;1.80;;
54430;SDS011;40342;52.998;5.862;2024-03-23T06:18:28;9.38;;;1.98;;
54430;SDS011;40342;52.998;5.862;2024-03-23T06:20:53;12.23;;;2.40;;
54430;SDS011;40342;52.998;5.862;2024-03-23T06:23:19;8.85;;;2.05;;
54430;SDS011;40342;52.998;5.862;2024-03-23T06:25:45;9.32;;;1.92;;
54430;SDS011;40342;52.998;5.862;2024-03-23T06:28:11;13.40;;;2.60;;
54430;SDS011;40342;52.998;5.862;2024-03-23T06:30:37;6.90;;;1.95;;
54430;SDS011;40342;52.998;5.862;2024-03-23T06:33:03;12.82;;;2.20;;
54430;SDS011;40342;52.998;5.862;2024-03-23T06:35:30;8.95;;;1.77;;
54430;SDS011;40342;52.998;5.862;2024-03-23T06:37:56;12.75;;;2.13;;
54430;SDS011;40342;52.998;5.862;2024-03-23T06:40:23;7.80;;;2.00;;
54430;SDS011;40342;52.998;5.862;2024-03-23T06:42:49;8.82;;;1.70;;
54430;SDS011;40342;52.998;5.862;2024-03-23T06:45:15;8.05;;;1.88;;
54430;SDS011;40342;52.998;5.862;2024-03-23T06:47:41;9.68;;;1.63;;
54430;SDS011;40342;52.998;5.862;2024-03-23T06:50:07;13.27;;;2.30;;
54430;SDS011;40342;52.998;5.862;2024-03-23T06:52:32;11.65;;;2.72;;
54430;SDS011;40342;52.998;5.862;2024-03-23T06:54:58;12.90;;;2.55;;
54430;SDS011;40342;52.998;5.862;2024-03-23T06:57:24;9.30;;;2.08;;
54430;SDS011;40342;52.998;5.862;2024-03-23T06:59:49;7.60;;;2.80;;
54430;SDS011;40342;52.998;5.862;2024-03-23T07:02:15;5.43;;;1.20;;
54430;SDS011;40342;52.998;5.862;2024-03-23T07:04:41;5.60;;;1.33;;
54430;SDS011;40342;52.998;5.862;2024-03-23T07:07:06;6.28;;;1.35;;
54430;SDS011;40342;52.998;5.862;2024-03-23T07:09:32;7.13;;;1.80;;
54430;SDS011;40342;52.998;5.862;2024-03-23T07:11:58;5.65;;;1.48;;
54430;SDS011;40342;52.998;5.862;2024-03-23T07:14:24;5.10;;;1.60;;
54430;SDS011;40342;52.998;5.862;2024-03-23T07:16:50;5.70;;;1.42;;
54430;SDS011;40342;52.998;5.862;2024-03-23T07:19:16;8.35;;;1.42;;
54430;SDS011;40342;52.998;5.862;2024-03-23T07:21:43;3.83;;;1.40;;
54430;SDS011;40342;52.998;5.862;2024-03-23T07:24:09;4.90;;;1.10;;
54430;SDS011;40342;52.998;5.862;2024-03-23T07:26:34;6.50;;;1.92;;
54430;SDS011;40342;52.998;5.862;2024-03-23T07:29:00;8.10;;;1.58;;
54430;SDS011;40342;52.998;5.862;2024-03-23T07:31:27;6.07;;;1.23;;
54430;SDS011;40342;52.998;5.862;2024-03-23T07:33:52;4.05;;;1.50;;
54430;SDS011;40342;52.998;5.862;2024-03-23T07:36:19;7.20;;;1.42;;
54430;SDS011;40342;52.998;5.862;2024-03-23T07:38:44;7.60;;;1.88;;
54430;SDS011;40342;52.998;5.862;2024-03-23T07:41:11;7.28;;;2.08;;
54430;SDS011;40342;52.998;5.862;2024-03-23T07:43:39;6.40;;;1.92;;
54430;SDS011;40342;52.998;5.862;2024-03-23T07:46:05;5.93;;;2.30;;
54430;SDS011;40342;52.998;5.862;2024-03-23T07:48:32;5.13;;;1.98;;
54430;SDS011;40342;52.998;5.862;2024-03-23T07:51:07;7.20;;;1.90;;
54430;SDS011;40342;52.998;5.862;2024-03-23T07:53:35;10.25;;;1.88;;
54430;SDS011;40342;52.998;5.862;2024-03-23T07:56:03;12.88;;;2.30;;
54430;SDS011;40342;52.998;5.862;2024-03-23T07:58:33;13.27;;;2.75;;
54430;SDS011;40342;52.998;5.862;2024-03-23T08:01:10;13.52;;;2.63;;
54430;SDS011;40342;52.998;5.862;2024-03-23T08:03:37;13.63;;;2.42;;
54430;SDS011;40342;52.998;5.862;2024-03-23T08:06:17;15.02;;;2.88;;
54430;SDS011;40342;52.998;5.862;2024-03-23T08:08:51;15.55;;;3.10;;
54430;SDS011;40342;52.998;5.862;2024-03-23T08:11:25;14.55;;;2.80;;
54430;SDS011;40342;52.998;5.862;2024-03-23T08:13:51;9.27;;;2.83;;
54430;SDS011;40342;52.998;5.862;2024-03-23T08:16:17;11.10;;;1.92;;
54430;SDS011;40342;52.998;5.862;2024-03-23T08:18:42;7.38;;;2.05;;
54430;SDS011;40342;52.998;5.862;2024-03-23T08:21:08;6.97;;;1.48;;
54430;SDS011;40342;52.998;5.862;2024-03-23T08:23:34;6.95;;;2.05;;
54430;SDS011;40342;52.998;5.862;2024-03-23T08:26:04;9.35;;;2.00;;
54430;SDS011;40342;52.998;5.862;2024-03-23T08:28:32;8.75;;;1.75;;
54430;SDS011;40342;52.998;5.862;2024-03-23T08:31:00;7.50;;;1.92;;
54430;SDS011;40342;52.998;5.862;2024-03-23T08:33:30;7.60;;;1.38;;
54430;SDS011;40342;52.998;5.862;2024-03-23T08:36:00;10.27;;;1.85;;
54430;SDS011;40342;52.998;5.862;2024-03-23T08:38:28;8.48;;;2.40;;
54430;SDS011;40342;52.998;5.862;2024-03-23T08:41:03;12.48;;;2.13;;
54430;SDS011;40342;52.998;5.862;2024-03-23T08:43:32;9.65;;;2.53;;
54430;SDS011;40342;52.998;5.862;2024-03-23T08:46:06;7.25;;;1.77;;
54430;SDS011;40342;52.998;5.862;2024-03-23T08:48:38;6.38;;;1.83;;
54430;SDS011;40342;52.998;5.862;2024-03-23T08:51:08;8.70;;;2.03;;
54430;SDS011;40342;52.998;5.862;2024-03-23T08:53:34;7.75;;;1.70;;
54430;SDS011;40342;52.998;5.862;2024-03-23T08:56:00;11.43;;;2.40;;
54430;SDS011;40342;52.998;5.862;2024-03-23T08:58:27;12.43;;;2.92;;
54430;SDS011;40342;52.998;5.862;2024-03-23T09:00:54;7.45;;;2.00;;
54430;SDS011;40342;52.998;5.862;2024-03-23T09:03:24;13.38;;;2.58;;
54430;SDS011;40342;52.998;5.862;2024-03-23T09:05:50;9.52;;;2.08;;
54430;SDS011;40342;52.998;5.862;2024-03-23T09:08:17;12.35;;;2.75;;
54430;SDS011;40342;52.998;5.862;2024-03-23T09:10:43;9.57;;;2.33;;
54430;SDS011;40342;52.998;5.862;2024-03-23T09:13:09;12.75;;;2.70;;
54430;SDS011;40342;52.998;5.862;2024-03-23T09:15:35;12.13;;;2.80;;
54430;SDS011;40342;52.998;5.862;2024-03-23T09:18:02;8.38;;;1.80;;
54430;SDS011;40342;52.998;5.862;2024-03-23T09:20:28;6.82;;;1.42;;
54430;SDS011;40342;52.998;5.862;2024-03-23T09:22:57;6.63;;;1.67;;
54430;SDS011;40342;52.998;5.862;2024-03-23T09:25:22;9.57;;;1.80;;
54430;SDS011;40342;52.998;5.862;2024-03-23T09:27:48;9.48;;;2.03;;
54430;SDS011;40342;52.998;5.862;2024-03-23T09:30:14;8.25;;;2.13;;
54430;SDS011;40342;52.998;5.862;2024-03-23T09:32:44;9.23;;;2.35;;
54430;SDS011;40342;52.998;5.862;2024-03-23T09:35:10;10.38;;;2.25;;
54430;SDS011;40342;52.998;5.862;2024-03-23T09:37:36;2.88;;;1.23;;
54430;SDS011;40342;52.998;5.862;2024-03-23T09:40:04;5.82;;;1.92;;
54430;SDS011;40342;52.998;5.862;2024-03-23T09:42:34;5.72;;;1.30;;
54430;SDS011;40342;52.998;5.862;2024-03-23T09:44:59;14.77;;;2.53;;
54430;SDS011;40342;52.998;5.862;2024-03-23T09:47:26;9.57;;;2.00;;
54430;SDS011;40342;52.998;5.862;2024-03-23T09:49:52;9.13;;;1.95;;
54430;SDS011;40342;52.998;5.862;2024-03-23T09:52:18;9.15;;;2.35;;
54430;SDS011;40342;52.998;5.862;2024-03-23T09:54:44;10.93;;;2.15;;
54430;SDS011;40342;52.998;5.862;2024-03-23T09:57:10;7.68;;;2.35;;
54430;SDS011;40342;52.998;5.862;2024-03-23T09:59:35;11.98;;;2.75;;
54430;SDS011;40342;52.998;5.862;2024-03-23T10:02:01;9.48;;;2.58;;
54430;SDS011;40342;52.998;5.862;2024-03-23T10:07:27;7.47;;;1.75;;
54430;SDS011;40342;52.998;5.862;2024-03-23T10:09:53;7.55;;;1.90;;
54430;SDS011;40342;52.998;5.862;2024-03-23T10:12:19;6.15;;;1.90;;
54430;SDS011;40342;52.998;5.862;2024-03-23T10:14:45;6.20;;;1.60;;
54430;SDS011;40342;52.998;5.862;2024-03-23T10:17:18;4.15;;;1.13;;
54430;SDS011;40342;52.998;5.862;2024-03-23T10:19:45;4.18;;;1.30;;
54430;SDS011;40342;52.998;5.862;2024-03-23T10:24:45;5.93;;;1.40;;
54430;SDS011;40342;52.998;5.862;2024-03-23T10:27:20;6.05;;;1.35;;
54430;SDS011;40342;52.998;5.862;2024-03-23T10:29:47;2.10;;;0.80;;
54430;SDS011;40342;52.998;5.862;2024-03-23T10:32:14;2.50;;;1.17;;
54430;SDS011;40342;52.998;5.862;2024-03-23T10:34:41;5.57;;;1.67;;
54430;SDS011;40342;52.998;5.862;2024-03-23T10:37:07;6.82;;;1.30;;
54430;SDS011;40342;52.998;5.862;2024-03-23T10:39:34;8.57;;;1.90;;
54430;SDS011;40342;52.998;5.862;2024-03-23T10:42:10;6.50;;;1.25;;
54430;SDS011;40342;52.998;5.862;2024-03-23T10:44:36;1.80;;;0.70;;
54430;SDS011;40342;52.998;5.862;2024-03-23T10:47:02;3.50;;;1.00;;
54430;SDS011;40342;52.998;5.862;2024-03-23T10:49:28;2.75;;;1.52;;
54430;SDS011;40342;52.998;5.862;2024-03-23T10:51:59;5.50;;;0.93;;
54430;SDS011;40342;52.998;5.862;2024-03-23T10:54:25;4.15;;;1.00;;
54430;SDS011;40342;52.998;5.862;2024-03-23T10:56:57;9.75;;;1.70;;
54430;SDS011;40342;52.998;5.862;2024-03-23T10:59:25;4.38;;;1.70;;
54430;SDS011;40342;52.998;5.862;2024-03-23T11:01:57;6.47;;;1.27;;
54430;SDS011;40342;52.998;5.862;2024-03-23T11:04:31;12.15;;;2.20;;
54430;SDS011;40342;52.998;5.862;2024-03-23T11:06:57;13.18;;;2.85;;
54430;SDS011;40342;52.998;5.862;2024-03-23T11:14:50;1.02;;;0.40;;
54430;SDS011;40342;52.998;5.862;2024-03-23T11:17:36;2.05;;;0.38;;
54430;SDS011;40342;52.998;5.862;2024-03-23T11:20:02;0.90;;;0.20;;
54430;SDS011;40342;52.998;5.862;2024-03-23T11:22:45;0.88;;;0.40;;
54430;SDS011;40342;52.998;5.862;2024-03-23T11:25:16;1.30;;;0.47;;
54430;SDS011;40342;52.998;5.862;2024-03-23T11:27:43;4.00;;;1.00;;
54430;SDS011;40342;52.998;5.862;2024-03-23T11:30:13;5.68;;;1.10;;
54430;SDS011;40342;52.998;5.862;2024-03-23T11:32:41;4.20;;;1.40;;
54430;SDS011;40342;52.998;5.862;2024-03-23T11:35:08;11.95;;;1.70;;
54430;SDS011;40342;52.998;5.862;2024-03-23T11:37:35;4.75;;;1.25;;
54430;SDS011;40342;52.998;5.862;2024-03-23T11:40:16;4.93;;;1.10;;
54430;SDS011;40342;52.998;5.862;2024-03-23T11:42:43;1.02;;;0.47;;
54430;SDS011;40342;52.998;5.862;2024-03-23T11:45:09;4.13;;;0.90;;
54430;SDS011;40342;52.998;5.862;2024-03-23T11:47:35;4.35;;;1.20;;
54430;SDS011;40342;52.998;5.862;2024-03-23T11:50:00;5.32;;;1.48;;
54430;SDS011;40342;52.998;5.862;2024-03-23T11:52:26;10.90;;;2.35;;
54430;SDS011;40342;52.998;5.862;2024-03-23T11:54:52;8.27;;;1.90;;
54430;SDS011;40342;52.998;5.862;2024-03-23T11:57:28;11.63;;;2.38;;
54430;SDS011;40342;52.998;5.862;2024-03-23T11:59:54;10.05;;;2.00;;
54430;SDS011;40342;52.998;5.862;2024-03-23T12:02:20;11.15;;;2.90;;
54430;SDS011;40342;52.998;5.862;2024-03-23T12:04:46;17.73;;;3.55;;
54430;SDS011;40342;52.998;5.862;2024-03-23T12:07:21;13.95;;;2.67;;
54430;SDS011;40342;52.998;5.862;2024-03-23T12:10:03;11.70;;;2.88;;
54430;SDS011;40342;52.998;5.862;2024-03-23T12:12:29;10.82;;;2.42;;
54430;SDS011;40342;52.998;5.862;2024-03-23T12:15:02;10.05;;;2.67;;
54430;SDS011;40342;52.998;5.862;2024-03-23T12:17:28;10.55;;;2.30;;
54430;SDS011;40342;52.998;5.862;2024-03-23T12:19:54;6.00;;;1.80;;
54430;SDS011;40342;52.998;5.862;2024-03-23T12:22:23;5.07;;;2.13;;
54430;SDS011;40342;52.998;5.862;2024-03-23T12:24:49;7.57;;;1.92;;
54430;SDS011;40342;52.998;5.862;2024-03-23T12:27:16;7.80;;;1.80;;
54430;SDS011;40342;52.998;5.862;2024-03-23T12:29:42;7.18;;;1.73;;
54430;SDS011;40342;52.998;5.862;2024-03-23T12:32:12;8.45;;;2.22;;
54430;SDS011;40342;52.998;5.862;2024-03-23T12:34:38;9.55;;;2.35;;
54430;SDS011;40342;52.998;5.862;2024-03-23T12:37:05;13.48;;;2.20;;
54430;SDS011;40342;52.998;5.862;2024-03-23T12:39:34;13.57;;;2.88;;
54430;SDS011;40342;52.998;5.862;2024-03-23T12:42:00;9.45;;;2.70;;
54430;SDS011;40342;52.998;5.862;2024-03-23T12:44:28;11.48;;;2.08;;
54430;SDS011;40342;52.998;5.862;2024-03-23T12:46:54;10.48;;;2.10;;
54430;SDS011;40342;52.998;5.862;2024-03-23T12:49:19;16.65;;;2.83;;
54430;SDS011;40342;52.998;5.862;2024-03-23T12:51:54;8.70;;;2.22;;
54430;SDS011;40342;52.998;5.862;2024-03-23T12:54:21;11.18;;;2.78;;
54430;SDS011;40342;52.998;5.862;2024-03-23T12:56:47;7.65;;;2.30;;
54430;SDS011;40342;52.998;5.862;2024-03-23T12:59:13;11.80;;;2.70;;
54430;SDS011;40342;52.998;5.862;2024-03-23T13:01:39;9.57;;;2.33;;
54430;SDS011;40342;52.998;5.862;2024-03-23T13:04:05;7.72;;;2.33;;
54430;SDS011;40342;52.998;5.862;2024-03-23T13:06:31;9.25;;;2.22;;
54430;SDS011;40342;52.998;5.862;2024-03-23T13:09:03;10.15;;;2.25;;
54430;SDS011;40342;52.998;5.862;2024-03-23T13:11:29;11.02;;;2.13;;
54430;SDS011;40342;52.998;5.862;2024-03-23T13:13:55;10.90;;;2.70;;
54430;SDS011;40342;52.998;5.862;2024-03-23T13:16:21;14.65;;;3.08;;
54430;SDS011;40342;52.998;5.862;2024-03-23T13:18:46;11.60;;;2.38;;
54430;SDS011;40342;52.998;5.862;2024-03-23T13:21:12;7.00;;;2.50;;
54430;SDS011;40342;52.998;5.862;2024-03-23T13:23:38;9.55;;;2.53;;
54430;SDS011;40342;52.998;5.862;2024-03-23T13:26:07;8.50;;;2.20;;
54430;SDS011;40342;52.998;5.862;2024-03-23T13:28:33;8.73;;;2.25;;
54430;SDS011;40342;52.998;5.862;2024-03-23T13:30:59;9.55;;;2.13;;
54430;SDS011;40342;52.998;5.862;2024-03-23T13:33:28;11.60;;;2.55;;
54430;SDS011;40342;52.998;5.862;2024-03-23T13:35:57;8.65;;;2.10;;
54430;SDS011;40342;52.998;5.862;2024-03-23T13:38:23;9.93;;;2.10;;
54430;SDS011;40342;52.998;5.862;2024-03-23T13:40:52;8.18;;;2.47;;
54430;SDS011;40342;52.998;5.862;2024-03-23T13:43:22;10.98;;;2.72;;
54430;SDS011;40342;52.998;5.862;2024-03-23T13:45:49;9.68;;;2.20;;
54430;SDS011;40342;52.998;5.862;2024-03-23T13:48:18;10.25;;;2.30;;
54430;SDS011;40342;52.998;5.862;2024-03-23T13:50:44;8.43;;;2.13;;
54430;SDS011;40342;52.998;5.862;2024-03-23T13:53:12;6.65;;;1.60;;
54430;SDS011;40342;52.998;5.862;2024-03-23T13:55:38;9.07;;;2.28;;
54430;SDS011;40342;52.998;5.862;2024-03-23T13:58:14;12.43;;;2.08;;
54430;SDS011;40342;52.998;5.862;2024-03-23T14:00:40;10.27;;;2.30;;
54430;SDS011;40342;52.998;5.862;2024-03-23T14:03:10;7.85;;;2.17;;
54430;SDS011;40342;52.998;5.862;2024-03-23T14:05:36;13.48;;;2.95;;
54430;SDS011;40342;52.998;5.862;2024-03-23T14:08:06;8.70;;;2.22;;
54430;SDS011;40342;52.998;5.862;2024-03-23T14:10:32;10.73;;;2.42;;
54430;SDS011;40342;52.998;5.862;2024-03-23T14:12:58;9.82;;;1.75;;
54430;SDS011;40342;52.998;5.862;2024-03-23T14:15:25;9.55;;;2.45;;
54430;SDS011;40342;52.998;5.862;2024-03-23T14:17:51;8.25;;;2.22;;
54430;SDS011;40342;52.998;5.862;2024-03-23T14:20:17;6.90;;;1.83;;
54430;SDS011;40342;52.998;5.862;2024-03-23T14:22:43;8.45;;;1.95;;
54430;SDS011;40342;52.998;5.862;2024-03-23T14:25:09;10.15;;;2.28;;
54430;SDS011;40342;52.998;5.862;2024-03-23T14:27:35;8.05;;;1.92;;
54430;SDS011;40342;52.998;5.862;2024-03-23T14:30:04;7.85;;;2.15;;
54430;SDS011;40342;52.998;5.862;2024-03-23T14:32:30;6.05;;;2.13;;
54430;SDS011;40342;52.998;5.862;2024-03-23T14:35:02;12.68;;;2.65;;
54430;SDS011;40342;52.998;5.862;2024-03-23T14:37:32;14.57;;;2.67;;
54430;SDS011;40342;52.998;5.862;2024-03-23T14:39:58;10.70;;;2.03;;
54430;SDS011;40342;52.998;5.862;2024-03-23T14:42:24;8.60;;;1.85;;
54430;SDS011;40342;52.998;5.862;2024-03-23T14:44:50;7.93;;;1.90;;
54430;SDS011;40342;52.998;5.862;2024-03-23T14:47:16;7.82;;;2.05;;
54430;SDS011;40342;52.998;5.862;2024-03-23T14:49:43;8.77;;;1.92;;
54430;SDS011;40342;52.998;5.862;2024-03-23T14:52:18;6.53;;;1.92;;
54430;SDS011;40342;52.998;5.862;2024-03-23T14:54:44;6.60;;;2.00;;
54430;SDS011;40342;52.998;5.862;2024-03-23T14:57:10;2.78;;;1.23;;
54430;SDS011;40342;52.998;5.862;2024-03-23T14:59:36;4.05;;;1.48;;
54430;SDS011;40342;52.998;5.862;2024-03-23T15:02:06;9.55;;;1.33;;
54430;SDS011;40342;52.998;5.862;2024-03-23T15:04:34;5.85;;;1.15;;
54430;SDS011;40342;52.998;5.862;2024-03-23T15:07:00;4.93;;;1.60;;
54430;SDS011;40342;52.998;5.862;2024-03-23T15:09:26;5.22;;;1.23;;
54430;SDS011;40342;52.998;5.862;2024-03-23T15:11:52;6.72;;;1.83;;
54430;SDS011;40342;52.998;5.862;2024-03-23T15:14:20;9.73;;;2.10;;
54430;SDS011;40342;52.998;5.862;2024-03-23T15:16:45;10.00;;;2.15;;
54430;SDS011;40342;52.998;5.862;2024-03-23T15:19:13;9.93;;;2.20;;
54430;SDS011;40342;52.998;5.862;2024-03-23T15:21:40;6.65;;;1.73;;
54430;SDS011;40342;52.998;5.862;2024-03-23T15:24:05;4.75;;;1.27;;
54430;SDS011;40342;52.998;5.862;2024-03-23T15:26:31;4.78;;;1.63;;
54430;SDS011;40342;52.998;5.862;2024-03-23T15:28:57;7.63;;;1.30;;
54430;SDS011;40342;52.998;5.862;2024-03-23T15:31:23;6.85;;;1.60;;
54430;SDS011;40342;52.998;5.862;2024-03-23T15:33:50;4.63;;;1.17;;
54430;SDS011;40342;52.998;5.862;2024-03-23T15:36:16;3.15;;;1.00;;
54430;SDS011;40342;52.998;5.862;2024-03-23T15:38:42;5.97;;;1.08;;
54430;SDS011;40342;52.998;5.862;2024-03-23T15:41:08;7.63;;;1.63;;
54430;SDS011;40342;52.998;5.862;2024-03-23T15:43:35;5.35;;;1.80;;